Time;durP1;ratioP1;P1;durP2;ratioP2;P2;SDS_P1;SDS_P2;PMS_P1;PMS_P2;Temp;Humidity;BMP_temperature;BMP_pressure;BME280_temperature;BME280_humidity;BME280_pressure;Samples;Min_cycle;Max_cycle;Signal;HPM_P1;HPM_P2
2022/12/26 00:01:26;;;;;;;14.27;9.77;;;;;;;;;;5127565;27;20054;-57
2022/12/26 00:03:52;;;;;;;11.70;8.75;;;;;;;;;;5127321;27;20112;-57
2022/12/26 00:06:19;;;;;;;13.60;8.48;;;;;;;;;;5127540;27;20039;-57
2022/12/26 00:08:46;;;;;;;14.23;9.70;;;;;;;;;;5127425;27;20067;-57
2022/12/26 00:11:12;;;;;;;12.55;8.38;;;;;;;;;;5126249;27;20078;-58
2022/12/26 00:13:39;;;;;;;12.77;8.10;;;;;;;;;;5127547;27;20084;-57
2022/12/26 00:16:12;;;;;;;13.45;8.77;;;;;;;;;;5127711;27;20054;-57
2022/12/26 00:18:38;;;;;;;11.45;7.90;;;;;;;;;;5126881;27;20484;-56
2022/12/26 00:21:05;;;;;;;9.25;7.28;;;;;;;;;;5127893;27;20092;-56
2022/12/26 00:23:31;;;;;;;11.57;7.82;;;;;;;;;;5126160;27;20050;-57
2022/12/26 00:26:02;;;;;;;15.88;11.32;;;;;;;;;;5127339;27;20386;-57
2022/12/26 00:28:28;;;;;;;16.52;11.13;;;;;;;;;;5127133;27;20371;-56
2022/12/26 00:30:54;;;;;;;14.60;10.05;;;;;;;;;;5126232;27;20043;-56
2022/12/26 00:33:20;;;;;;;22.13;13.73;;;;;;;;;;5127386;27;20035;-57
2022/12/26 00:35:46;;;;;;;17.77;11.02;;;;;;;;;;5126951;27;20115;-57
2022/12/26 00:38:12;;;;;;;18.75;11.10;;;;;;;;;;5126118;27;20578;-56
2022/12/26 00:40:42;;;;;;;16.67;11.20;;;;;;;;;;5127016;27;20409;-57
2022/12/26 00:43:08;;;;;;;18.27;11.00;;;;;;;;;;5127380;27;20047;-57
2022/12/26 00:45:34;;;;;;;20.70;11.48;;;;;;;;;;5108030;27;20047;-56
2022/12/26 00:48:00;;;;;;;14.82;9.82;;;;;;;;;;5108825;27;20060;-57
2022/12/26 00:50:27;;;;;;;15.40;8.95;;;;;;;;;;5126608;27;20041;-56
2022/12/26 00:52:54;;;;;;;17.25;10.05;;;;;;;;;;5126360;27;20039;-56
2022/12/26 00:55:20;;;;;;;16.45;9.10;;;;;;;;;;5126860;27;20553;-56
2022/12/26 00:57:46;;;;;;;17.25;9.75;;;;;;;;;;5126968;27;20084;-56
2022/12/26 01:00:12;;;;;;;16.63;8.85;;;;;;;;;;5125787;27;20545;-58
2022/12/26 01:02:38;;;;;;;15.20;10.68;;;;;;;;;;5127055;27;20040;-57
2022/12/26 01:05:08;;;;;;;15.18;9.68;;;;;;;;;;5127183;27;20058;-57
2022/12/26 01:07:35;;;;;;;16.13;9.65;;;;;;;;;;5126109;28;20088;-56
2022/12/26 01:10:02;;;;;;;19.67;10.75;;;;;;;;;;5126643;28;20062;-57
2022/12/26 01:12:29;;;;;;;17.92;10.57;;;;;;;;;;5126546;28;20097;-57
2022/12/26 01:14:55;;;;;;;16.33;9.93;;;;;;;;;;5125712;28;20517;-57
2022/12/26 01:17:21;;;;;;;18.38;9.40;;;;;;;;;;5126537;28;20126;-56
2022/12/26 01:19:47;;;;;;;21.25;12.85;;;;;;;;;;5125664;28;20546;-56
2022/12/26 01:22:13;;;;;;;21.77;12.02;;;;;;;;;;5126803;28;20042;-57
2022/12/26 01:24:39;;;;;;;20.13;11.18;;;;;;;;;;5126513;28;20075;-56
2022/12/26 01:27:05;;;;;;;16.95;10.43;;;;;;;;;;5126276;28;20067;-57
2022/12/26 01:29:31;;;;;;;17.77;10.52;;;;;;;;;;5126555;28;20138;-56
2022/12/26 01:31:57;;;;;;;17.42;10.95;;;;;;;;;;5126283;28;20035;-57
2022/12/26 01:34:23;;;;;;;22.95;13.25;;;;;;;;;;5125718;28;20063;-56
2022/12/26 01:36:51;;;;;;;23.08;12.75;;;;;;;;;;5126503;28;20397;-56
2022/12/26 01:39:17;;;;;;;20.60;12.02;;;;;;;;;;5126313;28;20131;-56
2022/12/26 01:41:43;;;;;;;23.63;12.88;;;;;;;;;;5125646;28;20123;-56
2022/12/26 01:44:27;;;;;;;18.55;12.40;;;;;;;;;;5126604;28;20402;-56
2022/12/26 01:46:53;;;;;;;21.42;12.07;;;;;;;;;;5126332;28;20051;-56
2022/12/26 01:49:31;;;;;;;20.98;12.60;;;;;;;;;;5125403;28;20043;-57
2022/12/26 01:52:01;;;;;;;21.05;12.88;;;;;;;;;;5126471;28;20503;-56
2022/12/26 01:54:30;;;;;;;17.25;11.18;;;;;;;;;;5125823;28;20035;-56
2022/12/26 01:56:57;;;;;;;22.27;12.88;;;;;;;;;;5125414;28;20061;-55
2022/12/26 01:59:25;;;;;;;24.83;13.27;;;;;;;;;;5126315;28;20039;-56
2022/12/26 02:01:52;;;;;;;20.77;13.15;;;;;;;;;;5125306;28;20520;-56
2022/12/26 02:07:07;;;;;;;25.17;12.55;;;;;;;;;;5126327;28;20047;-56
2022/12/26 02:09:33;;;;;;;18.58;11.25;;;;;;;;;;5124906;28;20063;-57
2022/12/26 02:12:13;;;;;;;19.27;10.52;;;;;;;;;;5126074;28;20755;-57
2022/12/26 02:14:39;;;;;;;13.45;8.40;;;;;;;;;;5128605;27;20035;-56
2022/12/26 02:17:06;;;;;;;15.27;9.13;;;;;;;;;;5129235;27;20054;-56
2022/12/26 02:19:32;;;;;;;15.80;9.13;;;;;;;;;;5129452;27;20035;-57
2022/12/26 02:22:17;;;;;;;18.80;8.95;;;;;;;;;;5129523;27;20527;-56
2022/12/26 02:24:49;;;;;;;17.70;9.80;;;;;;;;;;5128505;27;20047;-57
2022/12/26 02:27:15;;;;;;;;;;;;;;;;;;5129789;27;20035;-56
2022/12/26 02:30:00;;;;;;;13.57;8.75;;;;;;;;;;5129381;27;19968;-56
2022/12/26 02:32:44;;;;;;;17.10;10.05;;;;;;;;;;5128972;27;20039;-57
2022/12/26 02:35:10;;;;;;;19.85;9.77;;;;;;;;;;5128957;27;20047;-56
2022/12/26 02:37:55;;;;;;;16.40;9.43;;;;;;;;;;5128942;27;20079;-56
2022/12/26 02:40:28;;;;;;;16.77;9.38;;;;;;;;;;5129302;27;20108;-56
2022/12/26 02:42:58;;;;;;;15.70;9.82;;;;;;;;;;5129022;27;20108;-56
2022/12/26 02:48:16;;;;;;;15.02;8.95;;;;;;;;;;5129307;27;20079;-56
2022/12/26 03:13:32;;;;;;;12.85;8.85;;;;;;;;;;5127753;27;20324;-57
2022/12/26 03:18:43;;;;;;;15.20;10.18;;;;;;;;;;5128058;27;20490;-56
2022/12/26 03:21:11;;;;;;;14.63;10.48;;;;;;;;;;5127641;27;20047;-57
2022/12/26 03:23:39;;;;;;;13.80;9.80;;;;;;;;;;5128593;27;20043;-57
2022/12/26 03:30:47;;;;;;;12.40;9.25;;;;;;;;;;5128519;27;20043;-56
2022/12/26 03:31:38;;;;;;;15.60;12.10;;;;;;;;;;5128144;27;20035;-56
2022/12/26 03:34:17;;;;;;;16.38;12.18;;;;;;;;;;5127629;27;20039;-57
2022/12/26 03:36:43;;;;;;;15.93;13.45;;;;;;;;;;5128028;27;20193;-55
2022/12/26 03:39:19;;;;;;;15.70;12.18;;;;;;;;;;5128231;27;20093;-56
2022/12/26 04:19:41;;;;;;;17.38;13.32;;;;;;;;;;5127043;27;20039;-56
2022/12/26 04:44:33;;;;;;;22.30;15.02;;;;;;;;;;5125621;27;20047;-56
2022/12/26 04:46:59;;;;;;;23.45;16.92;;;;;;;;;;5127014;27;21268;-56
2022/12/26 04:52:12;;;;;;;21.42;15.73;;;;;;;;;;5125814;27;20043;-56
2022/12/26 04:54:38;;;;;;;21.30;15.57;;;;;;;;;;5127401;27;20538;-56
2022/12/26 04:57:05;;;;;;;21.15;16.05;;;;;;;;;;5126589;27;20118;-56
2022/12/26 04:59:31;;;;;;;22.38;17.50;;;;;;;;;;5125686;27;20051;-56
2022/12/26 05:10:20;;;;;;;26.42;19.05;;;;;;;;;;5126139;28;20043;-57
2022/12/26 05:12:46;;;;;;;20.98;17.17;;;;;;;;;;5125990;28;20415;-57
2022/12/26 05:15:12;;;;;;;23.85;18.30;;;;;;;;;;5126361;28;20043;-56
2022/12/26 05:28:43;;;;;;;20.65;16.60;;;;;;;;;;5126601;28;20440;-56
2022/12/26 05:31:09;;;;;;;23.38;16.58;;;;;;;;;;5126462;28;20035;-56
2022/12/26 05:36:22;;;;;;;21.17;16.55;;;;;;;;;;5126257;28;20486;-57
2022/12/26 05:38:48;;;;;;;22.02;16.95;;;;;;;;;;5126755;28;20050;-56
2022/12/26 05:41:15;;;;;;;20.45;16.63;;;;;;;;;;5125272;28;20606;-57
2022/12/26 05:43:40;;;;;;;20.48;16.83;;;;;;;;;;5126192;28;20056;-56
2022/12/26 05:46:07;;;;;;;20.90;18.58;;;;;;;;;;5126499;28;20119;-56
2022/12/26 05:48:33;;;;;;;18.92;16.02;;;;;;;;;;5126015;27;20039;-56
2022/12/26 05:50:59;;;;;;;21.02;16.25;;;;;;;;;;5130567;27;20032;-58
2022/12/26 05:53:26;;;;;;;19.75;16.98;;;;;;;;;;5129996;27;20458;-56
2022/12/26 05:55:52;;;;;;;21.33;17.48;;;;;;;;;;5129543;27;20051;-57
2022/12/26 05:58:18;;;;;;;22.77;17.38;;;;;;;;;;5130241;27;20390;-56
2022/12/26 06:00:44;;;;;;;21.77;16.58;;;;;;;;;;5130049;27;20081;-56
2022/12/26 06:03:10;;;;;;;22.02;18.30;;;;;;;;;;5129014;27;20074;-56
2022/12/26 06:05:36;;;;;;;24.40;19.77;;;;;;;;;;5130079;27;20517;-56
2022/12/26 06:08:02;;;;;;;24.27;18.33;;;;;;;;;;5129210;27;20045;-56
2022/12/26 06:10:28;;;;;;;25.80;19.88;;;;;;;;;;5129491;27;20472;-56
2022/12/26 06:12:55;;;;;;;22.35;17.17;;;;;;;;;;5129909;27;20080;-57
2022/12/26 06:15:22;;;;;;;22.50;17.63;;;;;;;;;;5128933;27;20439;-57
2022/12/26 06:17:49;;;;;;;20.60;17.88;;;;;;;;;;5129871;27;20170;-56
2022/12/26 06:20:15;;;;;;;21.20;18.13;;;;;;;;;;5129168;27;20514;-57
2022/12/26 06:22:41;;;;;;;22.02;17.30;;;;;;;;;;5128783;27;20420;-56
2022/12/26 06:25:07;;;;;;;20.23;16.80;;;;;;;;;;5129968;27;20055;-56
2022/12/26 06:27:33;;;;;;;21.15;17.52;;;;;;;;;;5129240;27;20076;-56
2022/12/26 06:29:59;;;;;;;20.20;16.77;;;;;;;;;;5128993;27;20243;-56
2022/12/26 06:32:25;;;;;;;18.77;15.95;;;;;;;;;;5129141;27;20055;-57
2022/12/26 06:34:51;;;;;;;20.00;16.55;;;;;;;;;;5129544;27;20443;-57
2022/12/26 06:37:17;;;;;;;20.25;16.80;;;;;;;;;;5128288;27;20043;-56
2022/12/26 06:39:43;;;;;;;19.50;15.80;;;;;;;;;;5129290;27;21099;-56
2022/12/26 06:42:09;;;;;;;17.98;15.13;;;;;;;;;;5129662;27;20036;-56
2022/12/26 06:44:35;;;;;;;17.10;15.30;;;;;;;;;;5128528;27;20489;-57
2022/12/26 06:47:02;;;;;;;18.23;15.02;;;;;;;;;;5129131;27;20046;-55
2022/12/26 06:49:28;;;;;;;16.50;13.98;;;;;;;;;;5128550;27;20051;-56
2022/12/26 06:51:54;;;;;;;17.75;15.77;;;;;;;;;;5128549;27;20054;-57
2022/12/26 06:54:20;;;;;;;17.63;15.35;;;;;;;;;;5129138;27;20058;-56
2022/12/26 06:56:46;;;;;;;14.73;13.20;;;;;;;;;;5129132;27;20385;-56
2022/12/26 06:59:12;;;;;;;15.20;13.48;;;;;;;;;;5109717;27;20050;-57
2022/12/26 07:01:38;;;;;;;16.83;12.80;;;;;;;;;;5129172;27;20035;-57
2022/12/26 07:04:05;;;;;;;15.35;13.05;;;;;;;;;;5128808;27;20508;-56
2022/12/26 07:06:35;;;;;;;16.45;12.68;;;;;;;;;;5127843;27;20087;-56
2022/12/26 07:09:03;;;;;;;22.17;12.80;;;;;;;;;;5128843;27;20039;-56
2022/12/26 07:11:30;;;;;;;14.43;11.40;;;;;;;;;;5127738;27;20568;-56
2022/12/26 07:13:56;;;;;;;12.52;11.07;;;;;;;;;;5128713;27;20127;-56
2022/12/26 07:16:23;;;;;;;16.08;11.75;;;;;;;;;;5128582;27;20118;-56
2022/12/26 07:18:51;;;;;;;13.60;11.07;;;;;;;;;;5128025;27;20176;-56
2022/12/26 07:21:17;;;;;;;11.82;10.65;;;;;;;;;;5128293;27;20046;-57
2022/12/26 07:23:44;;;;;;;13.38;10.63;;;;;;;;;;5128363;27;20042;-57
2022/12/26 07:26:10;;;;;;;11.45;10.25;;;;;;;;;;5127248;27;20486;-56
2022/12/26 07:28:36;;;;;;;11.55;9.60;;;;;;;;;;5128428;27;20482;-56
2022/12/26 07:31:02;;;;;;;11.25;8.82;;;;;;;;;;5128107;27;20047;-56
2022/12/26 07:33:28;;;;;;;10.13;7.95;;;;;;;;;;5127255;27;20043;-57
2022/12/26 07:35:58;;;;;;;15.02;7.97;;;;;;;;;;5128106;27;20043;-56
2022/12/26 07:38:24;;;;;;;11.40;7.25;;;;;;;;;;5128172;27;20038;-55
2022/12/26 07:40:50;;;;;;;12.02;7.47;;;;;;;;;;5127338;27;20449;-57
2022/12/26 07:43:16;;;;;;;8.85;6.47;;;;;;;;;;5127677;27;20039;-56
2022/12/26 07:45:42;;;;;;;10.23;6.88;;;;;;;;;;5127824;27;20109;-56
2022/12/26 07:48:08;;;;;;;8.55;6.00;;;;;;;;;;5127664;27;20050;-57
2022/12/26 07:50:34;;;;;;;8.20;6.07;;;;;;;;;;5128364;27;20478;-56
2022/12/26 07:53:00;;;;;;;9.63;6.65;;;;;;;;;;5127762;27;20516;-56
2022/12/26 07:55:26;;;;;;;7.80;6.15;;;;;;;;;;5126783;27;20043;-56
2022/12/26 07:57:53;;;;;;;9.75;6.30;;;;;;;;;;5127923;27;20485;-56
2022/12/26 08:00:19;;;;;;;6.95;6.05;;;;;;;;;;5127799;27;20130;-56
2022/12/26 08:02:49;;;;;;;7.55;6.32;;;;;;;;;;5127038;27;20043;-57
2022/12/26 08:05:16;;;;;;;11.73;6.78;;;;;;;;;;5127312;27;20091;-57
2022/12/26 08:07:42;;;;;;;8.20;6.50;;;;;;;;;;5127003;27;20114;-56
2022/12/26 08:10:08;;;;;;;8.82;6.07;;;;;;;;;;5127630;27;20051;-56
2022/12/26 08:12:34;;;;;;;14.02;7.13;;;;;;;;;;5126583;27;20091;-57
2022/12/26 08:15:00;;;;;;;8.77;6.40;;;;;;;;;;5126812;27;20444;-56
2022/12/26 08:17:27;;;;;;;9.70;5.50;;;;;;;;;;5127347;27;20046;-56
2022/12/26 08:19:53;;;;;;;8.43;5.55;;;;;;;;;;5127386;27;20513;-57
2022/12/26 08:22:19;;;;;;;8.25;5.22;;;;;;;;;;5126911;27;20406;-56
2022/12/26 08:24:45;;;;;;;9.90;6.15;;;;;;;;;;5127071;27;20050;-56
2022/12/26 08:27:11;;;;;;;7.43;5.45;;;;;;;;;;5126922;27;20074;-56
2022/12/26 08:29:37;;;;;;;7.38;5.78;;;;;;;;;;5126586;27;20080;-56
2022/12/26 08:32:03;;;;;;;7.45;4.63;;;;;;;;;;5127106;27;20051;-56
2022/12/26 08:34:32;;;;;;;12.57;6.43;;;;;;;;;;5126964;27;20062;-57
2022/12/26 08:36:58;;;;;;;8.40;5.15;;;;;;;;;;5126439;27;20055;-56
2022/12/26 08:39:24;;;;;;;7.05;5.35;;;;;;;;;;5126980;27;20050;-56
2022/12/26 08:41:50;;;;;;;6.88;5.47;;;;;;;;;;5127204;27;20047;-57
2022/12/26 08:44:16;;;;;;;9.02;5.45;;;;;;;;;;5125852;27;20393;-57
2022/12/26 08:46:43;;;;;;;7.68;4.70;;;;;;;;;;5126905;27;20208;-54
2022/12/26 08:49:09;;;;;;;8.70;5.85;;;;;;;;;;5126892;27;20050;-55
2022/12/26 08:51:35;;;;;;;9.27;4.72;;;;;;;;;;5126224;27;20039;-56
2022/12/26 08:54:01;;;;;;;5.43;4.20;;;;;;;;;;5126833;27;20079;-57
2022/12/26 08:56:27;;;;;;;5.43;4.03;;;;;;;;;;5126309;27;20043;-56
2022/12/26 08:58:54;;;;;;;6.32;5.00;;;;;;;;;;5126444;27;20045;-56
2022/12/26 09:01:21;;;;;;;8.00;5.57;;;;;;;;;;5127042;27;20075;-56
2022/12/26 09:03:47;;;;;;;5.10;4.55;;;;;;;;;;5126174;27;20055;-57
2022/12/26 09:06:14;;;;;;;5.53;4.72;;;;;;;;;;5126441;27;20039;-56
2022/12/26 09:08:40;;;;;;;7.28;4.70;;;;;;;;;;5126382;28;20083;-56
2022/12/26 09:11:08;;;;;;;10.75;5.10;;;;;;;;;;5125969;28;20649;-57
2022/12/26 09:13:34;;;;;;;8.82;5.20;;;;;;;;;;5126724;28;20092;-57
2022/12/26 09:16:13;;;;;;;7.75;5.03;;;;;;;;;;5126860;28;20042;-56
2022/12/26 09:18:39;;;;;;;8.32;5.20;;;;;;;;;;5126144;28;20043;-55
2022/12/26 09:21:06;;;;;;;7.13;4.28;;;;;;;;;;5126663;28;20552;-56
2022/12/26 09:23:33;;;;;;;7.20;4.10;;;;;;;;;;5128663;27;20047;-57
2022/12/26 09:26:16;;;;;;;7.35;4.63;;;;;;;;;;5130238;27;20055;-55
2022/12/26 09:28:42;;;;;;;5.68;4.15;;;;;;;;;;5130877;27;20047;-57
2022/12/26 09:31:11;;;;;;;9.20;4.50;;;;;;;;;;5130885;27;20035;-56
2022/12/26 09:33:38;;;;;;;7.43;2.72;;;;;;;;;;5129931;27;20054;-55
2022/12/26 09:36:05;;;;;;;7.88;3.17;;;;;;;;;;5130526;27;20132;-56
2022/12/26 09:38:31;;;;;;;7.53;3.40;;;;;;;;;;5130230;27;20541;-56
2022/12/26 09:41:16;;;;;;;5.45;2.75;;;;;;;;;;5129674;27;20069;-55
2022/12/26 09:44:00;;;;;;;15.82;3.90;;;;;;;;;;5130207;27;20078;-56
2022/12/26 09:46:44;;;;;;;8.82;3.00;;;;;;;;;;5129157;27;20051;-56
2022/12/26 09:49:20;;;;;;;14.82;2.70;;;;;;;;;;5130024;27;20039;-56
2022/12/26 09:51:48;;;;;;;10.98;2.08;;;;;;;;;;5129913;27;20182;-56
2022/12/26 09:54:43;;;;;;;9.07;2.15;;;;;;;;;;5129144;27;20070;-56
2022/12/26 09:57:16;;;;;;;14.40;2.33;;;;;;;;;;5098811;27;20047;-56
2022/12/26 09:59:48;;;;;;;11.18;2.80;;;;;;;;;;5128625;27;20031;-56
2022/12/26 10:02:18;;;;;;;6.38;1.95;;;;;;;;;;5128714;27;20085;-53
2022/12/26 10:04:44;;;;;;;8.70;2.00;;;;;;;;;;5129092;27;20050;-56
2022/12/26 10:07:21;;;;;;;8.23;1.75;;;;;;;;;;5128175;27;20043;-56
2022/12/26 10:09:49;;;;;;;9.15;1.98;;;;;;;;;;5129109;27;20051;-56
2022/12/26 10:12:15;;;;;;;14.75;2.33;;;;;;;;;;5128847;27;20054;-56
2022/12/26 10:14:52;;;;;;;7.68;1.90;;;;;;;;;;5128076;27;20039;-56
2022/12/26 10:17:34;;;;;;;11.55;2.35;;;;;;;;;;5129013;27;20045;-55
2022/12/26 10:20:19;;;;;;;9.88;2.10;;;;;;;;;;5129480;27;20047;-56
2022/12/26 10:23:04;;;;;;;10.50;2.13;;;;;;;;;;5128318;27;20081;-57
2022/12/26 10:25:32;;;;;;;12.32;2.85;;;;;;;;;;5129062;27;20039;-56
2022/12/26 10:27:59;;;;;;;11.00;1.52;;;;;;;;;;5128565;27;20039;-56
2022/12/26 10:30:33;;;;;;;8.43;2.13;;;;;;;;;;5128046;27;20084;-56
2022/12/26 10:33:02;;;;;;;9.55;1.70;;;;;;;;;;5128974;27;20039;-57
2022/12/26 10:35:30;;;;;;;8.27;1.83;;;;;;;;;;5127140;27;20050;-57
2022/12/26 10:38:00;;;;;;;9.68;2.15;;;;;;;;;;5128511;27;20546;-56
2022/12/26 10:40:40;;;;;;;3.47;1.05;;;;;;;;;;5128393;27;20114;-56
2022/12/26 10:43:25;;;;;;;2.63;1.10;;;;;;;;;;5128151;27;20085;-56
2022/12/26 10:45:58;;;;;;;7.07;0.90;;;;;;;;;;5128692;27;20076;-56
2022/12/26 10:48:26;;;;;;;3.25;1.35;;;;;;;;;;5128288;27;20067;-56
2022/12/26 10:50:52;;;;;;;4.63;0.98;;;;;;;;;;5128038;27;20133;-56
2022/12/26 10:53:18;;;;;;;4.70;0.90;;;;;;;;;;5128206;27;20486;-56
2022/12/26 10:55:44;;;;;;;5.70;0.95;;;;;;;;;;5128270;27;20503;-56
2022/12/26 10:58:16;;;;;;;5.50;0.77;;;;;;;;;;5127230;27;20060;-56
2022/12/26 11:00:42;;;;;;;4.50;1.40;;;;;;;;;;5128306;27;20118;-56
2022/12/26 11:03:15;;;;;;;5.53;1.00;;;;;;;;;;5128387;27;20039;-56
2022/12/26 11:05:50;;;;;;;6.53;0.90;;;;;;;;;;5127354;27;20040;-55
2022/12/26 11:08:16;;;;;;;5.15;1.58;;;;;;;;;;5128080;27;20100;-56
2022/12/26 11:10:45;;;;;;;7.68;1.48;;;;;;;;;;5127384;27;20967;-56
2022/12/26 11:13:17;;;;;;;6.63;1.73;;;;;;;;;;5127421;27;20050;-57
2022/12/26 11:15:52;;;;;;;3.25;1.10;;;;;;;;;;5127976;27;20455;-56
2022/12/26 11:18:23;;;;;;;3.17;1.17;;;;;;;;;;5127249;27;20039;-56
2022/12/26 11:20:50;;;;;;;3.67;0.80;;;;;;;;;;5128346;27;20303;-56
2022/12/26 11:23:23;;;;;;;2.35;0.82;;;;;;;;;;5127853;27;20054;-56
2022/12/26 11:25:51;;;;;;;1.45;0.50;;;;;;;;;;5127412;27;20047;-56
2022/12/26 11:28:25;;;;;;;3.80;1.10;;;;;;;;;;5127164;27;20043;-56
2022/12/26 11:30:51;;;;;;;5.00;0.75;;;;;;;;;;5109772;27;20116;-56
2022/12/26 11:33:21;;;;;;;6.35;1.40;;;;;;;;;;5126707;27;20043;-56
2022/12/26 11:36:05;;;;;;;2.95;0.63;;;;;;;;;;5127808;27;20175;-56
2022/12/26 11:38:35;;;;;;;6.57;1.27;;;;;;;;;;5126636;27;20126;-56
2022/12/26 11:43:53;;;;;;;5.75;2.08;;;;;;;;;;5127593;27;20067;-56
2022/12/26 11:46:21;;;;;;;2.60;1.02;;;;;;;;;;5125834;27;20043;-56
2022/12/26 11:48:49;;;;;;;3.40;0.77;;;;;;;;;;5127377;27;20042;-56
2022/12/26 11:51:15;;;;;;;5.75;1.35;;;;;;;;;;5127108;27;20058;-56
2022/12/26 11:53:41;;;;;;;4.10;0.90;;;;;;;;;;5126276;27;20045;-56
2022/12/26 11:56:08;;;;;;;8.25;1.73;;;;;;;;;;5127546;27;20043;-56
2022/12/26 11:58:34;;;;;;;5.10;1.77;;;;;;;;;;5127092;27;20409;-56
2022/12/26 12:01:00;;;;;;;4.80;1.38;;;;;;;;;;5126518;27;20074;-56
2022/12/26 12:03:35;;;;;;;7.72;1.45;;;;;;;;;;5126811;27;20070;-56
2022/12/26 12:06:01;;;;;;;4.43;1.52;;;;;;;;;;5126829;27;20047;-56
2022/12/26 12:08:37;;;;;;;4.53;1.25;;;;;;;;;;5125951;27;20050;-56
2022/12/26 12:11:03;;;;;;;8.70;1.70;;;;;;;;;;5126850;27;20560;-56
2022/12/26 12:13:36;;;;;;;4.22;0.95;;;;;;;;;;5126385;27;20043;-56
2022/12/26 12:16:14;;;;;;;7.78;1.60;;;;;;;;;;5125864;27;20042;-57
2022/12/26 12:18:41;;;;;;;8.73;1.55;;;;;;;;;;5126945;27;20073;-56
2022/12/26 12:21:06;;;;;;;3.80;1.17;;;;;;;;;;5126539;27;20043;-56
2022/12/26 12:23:32;;;;;;;10.98;1.67;;;;;;;;;;5126532;27;20452;-56
2022/12/26 12:26:06;;;;;;;7.15;1.70;;;;;;;;;;5126490;27;20058;-56
2022/12/26 12:28:56;;;;;;;6.93;1.60;;;;;;;;;;5125719;27;20500;-56
2022/12/26 12:31:54;;;;;;;5.80;1.40;;;;;;;;;;5124940;27;20490;-55
2022/12/26 12:34:39;;;;;;;4.85;1.10;;;;;;;;;;5082908;27;20507;-56
2022/12/26 12:37:05;;;;;;;6.78;1.98;;;;;;;;;;5116947;27;20050;-55
2022/12/26 12:39:50;;;;;;;8.35;1.63;;;;;;;;;;5146884;27;20061;-55
2022/12/26 12:42:29;;;;;;;3.75;1.30;;;;;;;;;;5146076;27;20038;-55
2022/12/26 12:45:05;;;;;;;9.70;2.00;;;;;;;;;;5128593;27;20107;-56
2022/12/26 12:47:31;;;;;;;2.40;1.00;;;;;;;;;;5146879;27;20043;-54
2022/12/26 12:49:57;;;;;;;2.58;1.08;;;;;;;;;;5146158;27;20039;-56
2022/12/26 12:52:29;;;;;;;5.53;1.15;;;;;;;;;;5146726;27;20069;-56
2022/12/26 12:55:01;;;;;;;4.70;1.45;;;;;;;;;;5146525;27;20043;-56
2022/12/26 12:57:33;;;;;;;9.23;2.00;;;;;;;;;;5145959;27;20043;-56
2022/12/26 13:00:08;;;;;;;4.82;1.48;;;;;;;;;;5141543;27;20047;-56
2022/12/26 13:02:46;;;;;;;6.18;1.42;;;;;;;;;;5128113;27;20066;-56
2022/12/26 13:05:12;;;;;;;6.30;1.50;;;;;;;;;;5126455;27;20043;-55
2022/12/26 13:07:40;;;;;;;3.28;0.85;;;;;;;;;;5135853;27;20121;-56
2022/12/26 13:10:13;;;;;;;3.13;1.20;;;;;;;;;;5136863;27;20163;-56
2022/12/26 13:12:41;;;;;;;4.28;1.30;;;;;;;;;;5139170;27;20306;-56
2022/12/26 13:15:16;;;;;;;5.38;1.10;;;;;;;;;;5131228;27;20067;-56
2022/12/26 13:18:02;;;;;;;4.47;1.48;;;;;;;;;;5132384;27;20043;-55
2022/12/26 13:20:32;;;;;;;5.90;1.42;;;;;;;;;;5131251;27;20086;-56
2022/12/26 13:25:57;;;;;;;8.25;1.98;;;;;;;;;;5134126;27;20046;-56
2022/12/26 13:28:27;;;;;;;4.18;1.08;;;;;;;;;;5131922;27;20397;-56
2022/12/26 13:30:54;;;;;;;8.38;2.05;;;;;;;;;;5132617;27;20485;-56
2022/12/26 13:33:20;;;;;;;9.15;1.92;;;;;;;;;;5124866;27;20039;-55
2022/12/26 13:35:49;;;;;;;10.93;2.03;;;;;;;;;;5136792;27;20049;-56
2022/12/26 13:38:15;;;;;;;8.38;1.52;;;;;;;;;;5129480;27;20039;-56
2022/12/26 13:40:52;;;;;;;7.45;1.48;;;;;;;;;;5125458;27;20035;-56
2022/12/26 13:46:27;;;;;;;4.78;1.70;;;;;;;;;;5133168;27;20500;-56
2022/12/26 13:48:55;;;;;;;7.47;1.52;;;;;;;;;;5112471;27;20035;-56
2022/12/26 13:51:41;;;;;;;4.72;1.50;;;;;;;;;;5135838;27;20108;-56
2022/12/26 13:54:09;;;;;;;4.22;1.52;;;;;;;;;;5133449;27;20614;-56
2022/12/26 13:56:41;;;;;;;6.90;1.00;;;;;;;;;;5134904;27;20134;-55
2022/12/26 13:59:07;;;;;;;6.10;1.30;;;;;;;;;;5134577;27;20478;-56
2022/12/26 14:01:49;;;;;;;6.07;1.48;;;;;;;;;;5136697;27;20042;-56
2022/12/26 14:04:15;;;;;;;5.60;1.67;;;;;;;;;;5135203;27;20082;-56
2022/12/26 14:06:41;;;;;;;6.60;1.55;;;;;;;;;;5124628;27;20316;-55
2022/12/26 14:09:20;;;;;;;5.95;1.20;;;;;;;;;;5126783;27;20070;-56
2022/12/26 14:11:57;;;;;;;6.93;1.05;;;;;;;;;;5131074;27;20222;-55
2022/12/26 14:14:41;;;;;;;5.75;1.10;;;;;;;;;;5136284;27;20092;-54
2022/12/26 14:17:33;;;;;;;8.40;1.20;;;;;;;;;;5139555;27;20054;-56
2022/12/26 14:19:59;;;;;;;;;;;;;;;;;;5138173;27;20046;-55
2022/12/26 14:22:41;;;;;;;4.20;1.25;;;;;;;;;;5130896;27;19927;-57
2022/12/26 14:25:22;;;;;;;4.45;1.38;;;;;;;;;;5130583;27;20071;-55
2022/12/26 14:27:51;;;;;;;7.57;1.48;;;;;;;;;;5128688;27;20590;-55
2022/12/26 14:30:19;;;;;;;5.03;1.00;;;;;;;;;;5129931;27;20038;-54
2022/12/26 14:32:51;;;;;;;5.20;1.13;;;;;;;;;;5130399;27;20055;-55
2022/12/26 14:35:36;;;;;;;4.28;1.10;;;;;;;;;;5129058;27;20043;-54
2022/12/26 14:38:05;;;;;;;4.10;1.02;;;;;;;;;;5130227;27;20719;-55
2022/12/26 14:40:33;;;;;;;5.25;1.02;;;;;;;;;;5129825;27;20043;-54
2022/12/26 14:43:12;;;;;;;6.45;1.35;;;;;;;;;;5129457;27;20047;-55
2022/12/26 14:45:41;;;;;;;5.72;1.48;;;;;;;;;;5130350;27;20047;-55
2022/12/26 14:48:10;;;;;;;5.40;1.15;;;;;;;;;;5130360;27;20040;-54
2022/12/26 14:50:39;;;;;;;2.58;1.00;;;;;;;;;;5129574;27;20114;-55
2022/12/26 14:53:26;;;;;;;4.55;1.58;;;;;;;;;;5138230;27;20095;-55
2022/12/26 14:56:09;;;;;;;7.65;1.65;;;;;;;;;;5129485;27;20128;-55
2022/12/26 14:58:40;;;;;;;7.47;1.67;;;;;;;;;;5149013;27;20122;-55
2022/12/26 15:01:09;;;;;;;4.80;1.02;;;;;;;;;;5150663;27;20043;-54
2022/12/26 15:03:50;;;;;;;4.15;1.17;;;;;;;;;;5149471;27;20078;-53
2022/12/26 15:06:29;;;;;;;10.18;2.17;;;;;;;;;;5149671;27;20457;-54
2022/12/26 15:09:22;;;;;;;4.32;1.40;;;;;;;;;;5149993;27;20050;-55
2022/12/26 15:12:07;;;;;;;6.57;1.50;;;;;;;;;;5140761;27;20492;-55
2022/12/26 15:14:33;;;;;;;4.97;1.50;;;;;;;;;;5132443;27;20520;-54
2022/12/26 15:17:02;;;;;;;5.00;1.60;;;;;;;;;;5130151;27;20070;-54
2022/12/26 15:19:31;;;;;;;5.97;1.55;;;;;;;;;;5135052;27;20524;-54
2022/12/26 15:22:03;;;;;;;6.55;1.65;;;;;;;;;;5136346;27;20469;-55
2022/12/26 15:24:32;;;;;;;9.48;1.60;;;;;;;;;;5138706;27;20096;-54
2022/12/26 15:26:58;;;;;;;5.78;1.65;;;;;;;;;;5148811;27;20045;-55
2022/12/26 15:29:39;;;;;;;9.73;1.83;;;;;;;;;;5146060;27;20062;-54
2022/12/26 15:32:11;;;;;;;4.70;1.00;;;;;;;;;;5138137;27;20089;-55
2022/12/26 15:34:37;;;;;;;8.57;1.45;;;;;;;;;;5137217;27;20043;-56
2022/12/26 15:37:12;;;;;;;5.25;1.50;;;;;;;;;;5139401;27;20046;-56
2022/12/26 15:40:02;;;;;;;5.97;1.50;;;;;;;;;;5141021;27;20034;-55
2022/12/26 15:42:42;;;;;;;7.13;1.45;;;;;;;;;;5138569;27;20047;-55
2022/12/26 15:45:16;;;;;;;10.07;1.35;;;;;;;;;;5137526;27;20047;-56
2022/12/26 15:47:42;;;;;;;5.13;1.55;;;;;;;;;;5127839;27;20035;-56
2022/12/26 15:50:29;;;;;;;3.95;1.45;;;;;;;;;;5131500;27;20049;-55
2022/12/26 15:53:01;;;;;;;3.47;1.05;;;;;;;;;;5142013;27;20613;-55
2022/12/26 15:55:35;;;;;;;7.13;1.50;;;;;;;;;;5131748;27;20267;-55
2022/12/26 15:58:24;;;;;;;6.53;1.38;;;;;;;;;;5132753;27;20035;-55
2022/12/26 16:00:51;;;;;;;5.78;0.90;;;;;;;;;;5108242;27;20111;-56
2022/12/26 16:03:17;;;;;;;11.20;3.50;;;;;;;;;;5147501;27;20130;-56
2022/12/26 16:05:43;;;;;;;8.98;1.65;;;;;;;;;;5147161;27;20133;-56
2022/12/26 16:08:15;;;;;;;8.60;1.90;;;;;;;;;;5145786;27;20041;-56
2022/12/26 16:10:41;;;;;;;8.75;1.77;;;;;;;;;;5147629;27;20372;-56
2022/12/26 16:13:13;;;;;;;4.30;1.33;;;;;;;;;;5147293;27;20042;-54
2022/12/26 16:16:06;;;;;;;4.00;1.27;;;;;;;;;;5147553;27;20035;-56
2022/12/26 16:18:32;;;;;;;6.68;1.45;;;;;;;;;;5143433;27;20531;-55
2022/12/26 16:23:46;;;;;;;6.20;1.95;;;;;;;;;;5147419;27;20070;-56
2022/12/26 16:26:16;;;;;;;8.57;2.03;;;;;;;;;;5147025;27;20544;-55
2022/12/26 16:28:43;;;;;;;8.50;1.70;;;;;;;;;;5146358;27;20034;-56
2022/12/26 16:31:09;;;;;;;3.80;1.30;;;;;;;;;;5146979;27;20577;-56
2022/12/26 16:33:39;;;;;;;4.82;1.77;;;;;;;;;;5147076;27;20501;-56
2022/12/26 16:36:07;;;;;;;4.07;2.08;;;;;;;;;;5146936;27;20126;-55
2022/12/26 16:38:33;;;;;;;10.45;1.92;;;;;;;;;;5146633;27;20099;-56
2022/12/26 16:40:59;;;;;;;8.60;1.67;;;;;;;;;;5146778;27;20050;-56
2022/12/26 16:43:36;;;;;;;4.75;1.63;;;;;;;;;;5128371;27;20034;-56
2022/12/26 16:46:04;;;;;;;9.15;2.63;;;;;;;;;;5146053;27;20340;-56
2022/12/26 16:48:31;;;;;;;9.10;2.90;;;;;;;;;;5146028;27;20035;-56
2022/12/26 16:50:58;;;;;;;8.50;1.45;;;;;;;;;;5146690;27;20175;-56
2022/12/26 16:53:45;;;;;;;6.53;1.40;;;;;;;;;;5146753;27;20442;-55
2022/12/26 16:56:26;;;;;;;1.95;0.90;;;;;;;;;;5145810;27;20043;-55
2022/12/26 16:59:01;;;;;;;8.80;1.48;;;;;;;;;;5147145;27;20118;-56
2022/12/26 17:01:27;;;;;;;7.13;1.90;;;;;;;;;;5146397;27;20054;-56